createdAt,value
2023-05-05T00:01:30.389Z,16.33
2023-05-05T00:03:57.032Z,16.14
2023-05-05T00:06:25.063Z,15.98
2023-05-05T00:08:51.674Z,16.11
2023-05-05T00:11:18.366Z,16.19
2023-05-05T00:13:44.950Z,16.29
2023-05-05T00:16:11.568Z,16.36
2023-05-05T00:18:38.249Z,16.41
2023-05-05T00:21:04.891Z,16.45
2023-05-05T00:23:33.006Z,16.42
2023-05-05T00:25:59.692Z,16.24
2023-05-05T00:28:26.357Z,16.13
2023-05-05T00:30:53.122Z,16.04
2023-05-05T00:33:19.822Z,16.12
2023-05-05T00:35:46.599Z,16.06
2023-05-05T00:38:13.186Z,16.17
2023-05-05T00:40:41.324Z,16.29
2023-05-05T00:43:08.278Z,16.38
2023-05-05T00:45:37.052Z,16.51
2023-05-05T00:48:03.952Z,16.61
2023-05-05T00:50:31.179Z,16.69
2023-05-05T00:53:01.193Z,16.69
2023-05-05T00:55:28.564Z,16.66
2023-05-05T00:57:57.511Z,16.66
2023-05-05T01:00:24.463Z,16.68
2023-05-05T01:02:52.280Z,16.72
2023-05-05T01:05:19.418Z,16.74
2023-05-05T01:07:52.309Z,16.75
2023-05-05T01:10:22.990Z,16.70
2023-05-05T01:12:53.825Z,16.62
2023-05-05T01:15:28.353Z,16.48
2023-05-05T01:17:59.610Z,16.39
2023-05-05T01:20:29.264Z,16.32
2023-05-05T01:22:58.405Z,16.31
2023-05-05T01:25:37.165Z,16.33
2023-05-05T01:28:11.340Z,16.31
2023-05-05T01:30:53.045Z,16.30
2023-05-05T01:33:36.291Z,16.23
2023-05-05T01:36:09.142Z,16.25
2023-05-05T01:38:38.069Z,16.25
2023-05-05T01:41:07.581Z,16.28
2023-05-05T01:43:35.187Z,16.30
2023-05-05T01:46:02.433Z,16.27
2023-05-05T01:48:33.519Z,16.27
2023-05-05T01:51:00.788Z,16.31
2023-05-05T01:53:29.614Z,16.35
2023-05-05T01:55:57.313Z,16.36
2023-05-05T01:58:25.399Z,16.32
2023-05-05T02:00:52.665Z,16.27
2023-05-05T02:03:21.122Z,16.28
2023-05-05T02:05:49.642Z,16.33
2023-05-05T02:08:16.851Z,16.41
2023-05-05T02:10:45.040Z,16.41
2023-05-05T02:13:13.315Z,16.53
2023-05-05T02:15:40.608Z,16.45
2023-05-05T02:18:07.741Z,16.57
2023-05-05T02:20:36.117Z,16.60
2023-05-05T02:23:05.664Z,16.74
2023-05-05T02:25:35.505Z,16.75
2023-05-05T02:28:03.881Z,16.83
2023-05-05T02:30:33.535Z,16.78
2023-05-05T02:33:06.225Z,16.63
2023-05-05T02:35:35.832Z,16.49
2023-05-05T02:38:05.622Z,16.42
2023-05-05T02:40:38.555Z,16.20
2023-05-05T02:43:08.187Z,16.05
2023-05-05T02:45:34.886Z,16.04
2023-05-05T02:48:02.849Z,15.97
2023-05-05T02:50:31.254Z,15.84
2023-05-05T02:53:09.464Z,15.77
2023-05-05T02:55:39.298Z,15.68
2023-05-05T02:58:08.560Z,15.57
2023-05-05T03:00:43.851Z,15.44
2023-05-05T03:03:17.776Z,15.30
2023-05-05T03:05:51.536Z,15.37
2023-05-05T03:08:25.851Z,15.23
2023-05-05T03:10:58.984Z,15.18
2023-05-05T03:13:28.536Z,15.25
2023-05-05T03:15:57.929Z,15.28
2023-05-05T03:18:27.746Z,15.42
2023-05-05T03:20:59.231Z,15.28
2023-05-05T03:23:26.390Z,15.30
2023-05-05T03:25:57.562Z,15.35
2023-05-05T03:28:38.747Z,15.36
2023-05-05T03:31:18.427Z,15.29
2023-05-05T03:33:49.790Z,15.21
2023-05-05T03:36:18.525Z,15.13
2023-05-05T03:38:45.823Z,15.06
2023-05-05T03:41:12.616Z,15.00
2023-05-05T03:43:41.389Z,14.96
2023-05-05T03:46:10.308Z,14.91
2023-05-05T03:48:37.351Z,14.90
2023-05-05T03:51:04.000Z,14.86
2023-05-05T03:53:33.466Z,14.79
2023-05-05T03:56:02.353Z,14.74
2023-05-05T03:58:28.981Z,14.75
2023-05-05T04:00:57.785Z,14.70
2023-05-05T04:03:25.380Z,14.76
2023-05-05T04:05:52.702Z,14.74
2023-05-05T04:08:20.224Z,14.77
2023-05-05T04:10:46.848Z,14.84
2023-05-05T04:13:13.592Z,14.84
2023-05-05T04:15:44.079Z,14.91
2023-05-05T04:18:12.319Z,14.94
2023-05-05T04:20:38.979Z,15.01
2023-05-05T04:23:05.829Z,15.01
2023-05-05T04:25:32.750Z,15.02
2023-05-05T04:27:59.406Z,15.09
2023-05-05T04:30:26.857Z,15.17
2023-05-05T04:32:53.710Z,15.34
2023-05-05T04:35:22.199Z,15.35
2023-05-05T04:37:49.049Z,15.33
2023-05-05T04:40:16.199Z,15.37
2023-05-05T04:42:42.963Z,15.50
2023-05-05T04:45:10.877Z,15.76
2023-05-05T04:47:38.262Z,16.03
2023-05-05T04:50:06.186Z,16.27
2023-05-05T04:52:34.436Z,16.62
2023-05-05T04:55:01.445Z,16.92
2023-05-05T04:57:28.079Z,16.95
2023-05-05T04:59:54.735Z,17.07
2023-05-05T05:02:22.311Z,16.09
2023-05-05T05:04:49.792Z,15.91
2023-05-05T05:07:16.866Z,15.13
2023-05-05T05:09:44.975Z,14.65
2023-05-05T05:12:11.909Z,14.59
2023-05-05T05:14:38.596Z,14.91
2023-05-05T05:17:05.636Z,15.96
2023-05-05T05:19:33.346Z,16.83
2023-05-05T05:22:00.199Z,16.83
2023-05-05T05:24:27.092Z,16.34
2023-05-05T05:26:55.452Z,16.71
2023-05-05T05:29:22.204Z,18.03
2023-05-05T05:31:50.191Z,18.65
2023-05-05T05:34:17.214Z,19.37
2023-05-05T05:36:44.657Z,20.36
2023-05-05T05:39:11.397Z,21.09
2023-05-05T05:41:38.629Z,21.80
2023-05-05T05:44:06.784Z,22.83
2023-05-05T05:46:33.732Z,23.91
2023-05-05T05:49:00.567Z,24.11
2023-05-05T05:51:27.897Z,23.38
2023-05-05T05:53:55.442Z,23.43
2023-05-05T05:56:23.660Z,23.50
2023-05-05T05:58:51.515Z,22.65
2023-05-05T06:01:20.115Z,22.16
2023-05-05T06:03:47.451Z,23.08
2023-05-05T06:06:14.276Z,24.20
2023-05-05T06:08:41.028Z,23.57
2023-05-05T06:11:07.953Z,24.73
2023-05-05T06:13:34.647Z,25.26
2023-05-05T06:16:02.108Z,24.99
2023-05-05T06:18:30.180Z,24.55
2023-05-05T06:20:57.235Z,24.01
2023-05-05T06:23:27.044Z,23.80
2023-05-05T06:25:58.871Z,23.63
2023-05-05T06:28:25.517Z,23.63
2023-05-05T06:30:52.146Z,24.38
2023-05-05T06:33:18.785Z,25.86
2023-05-05T06:35:47.819Z,26.92
2023-05-05T06:38:14.761Z,26.74
2023-05-05T06:40:42.144Z,27.03
2023-05-05T06:43:08.923Z,27.21
2023-05-05T06:45:43.680Z,26.17
2023-05-05T06:48:10.590Z,25.48
2023-05-05T06:50:37.270Z,25.08
2023-05-05T06:53:05.565Z,24.48
2023-05-05T06:55:32.208Z,22.76
2023-05-05T06:57:58.946Z,23.33
2023-05-05T07:00:25.714Z,23.20
2023-05-05T07:02:52.551Z,23.32
2023-05-05T07:05:19.356Z,22.35
2023-05-05T07:07:52.676Z,22.21
2023-05-05T07:10:21.490Z,23.00
2023-05-05T07:12:48.526Z,23.64
2023-05-05T07:15:25.995Z,23.38
2023-05-05T07:17:53.901Z,23.22
2023-05-05T07:20:20.519Z,23.83
2023-05-05T07:22:47.108Z,24.13
2023-05-05T07:25:13.729Z,23.39
2023-05-05T07:27:41.885Z,24.23
2023-05-05T07:30:13.007Z,24.41
2023-05-05T07:32:41.046Z,23.69
2023-05-05T07:35:07.986Z,24.15
2023-05-05T07:37:34.685Z,25.03
2023-05-05T07:40:01.358Z,25.10
2023-05-05T07:42:28.017Z,24.73
2023-05-05T07:44:56.051Z,24.69
2023-05-05T07:47:22.763Z,24.61
2023-05-05T07:49:49.412Z,22.49
2023-05-05T07:52:16.061Z,23.84
2023-05-05T07:54:42.762Z,24.40
2023-05-05T07:57:09.417Z,24.62
2023-05-05T07:59:36.137Z,24.73
2023-05-05T08:02:04.145Z,24.80
2023-05-05T08:04:30.857Z,24.72
2023-05-05T08:06:57.615Z,24.85
2023-05-05T08:09:24.511Z,25.22
2023-05-05T08:11:51.150Z,23.81
2023-05-05T08:14:17.746Z,23.86
2023-05-05T08:16:44.398Z,24.43
2023-05-05T08:19:24.943Z,23.73
2023-05-05T08:21:55.117Z,23.84
2023-05-05T08:24:21.763Z,24.95
2023-05-05T08:26:49.195Z,24.57
2023-05-05T08:29:15.831Z,23.46
2023-05-05T08:31:42.610Z,24.42
2023-05-05T08:34:09.362Z,24.08
2023-05-05T08:36:37.370Z,24.92
2023-05-05T08:39:04.131Z,23.37
2023-05-05T08:41:31.101Z,24.53
2023-05-05T08:43:57.784Z,25.14
2023-05-05T08:46:26.825Z,25.34
2023-05-05T08:48:55.084Z,23.64
2023-05-05T08:51:22.065Z,22.77
2023-05-05T08:53:56.425Z,23.97
2023-05-05T08:56:25.869Z,25.03
2023-05-05T08:58:52.634Z,23.70
2023-05-05T09:01:19.937Z,24.92
2023-05-05T09:03:46.835Z,25.79
2023-05-05T09:06:13.555Z,25.88
2023-05-05T09:08:40.410Z,25.47
2023-05-05T09:11:08.452Z,25.19
2023-05-05T09:13:35.100Z,25.56
2023-05-05T09:16:01.755Z,24.17
2023-05-05T09:18:28.932Z,24.34
2023-05-05T09:20:56.859Z,24.77
2023-05-05T09:23:25.507Z,25.07
2023-05-05T09:26:03.826Z,26.00
2023-05-05T09:28:32.279Z,25.25
2023-05-05T09:31:11.983Z,25.00
2023-05-05T09:33:39.352Z,24.21
2023-05-05T09:36:06.328Z,24.55
2023-05-05T09:38:34.382Z,24.23
2023-05-05T09:41:01.033Z,24.65
2023-05-05T09:43:27.700Z,25.46
2023-05-05T09:46:05.715Z,26.06
2023-05-05T09:48:32.517Z,26.23
2023-05-05T09:50:59.660Z,26.14
2023-05-05T09:53:26.664Z,23.93
2023-05-05T09:55:54.464Z,25.15
2023-05-05T09:58:24.337Z,25.92
2023-05-05T10:00:51.467Z,26.60
2023-05-05T10:03:19.814Z,26.65
2023-05-05T10:05:50.677Z,26.49
2023-05-05T10:08:18.262Z,26.12
2023-05-05T10:10:51.432Z,25.04
2023-05-05T10:13:19.035Z,25.60
2023-05-05T10:15:47.130Z,24.96
2023-05-05T10:18:14.813Z,25.46
2023-05-05T10:20:43.922Z,25.71
2023-05-05T10:23:12.769Z,25.98
2023-05-05T10:25:42.203Z,25.56
2023-05-05T10:28:11.805Z,25.61
2023-05-05T10:30:43.201Z,25.02
2023-05-05T10:33:30.027Z,24.71
2023-05-05T10:36:01.478Z,25.39
2023-05-05T10:38:28.816Z,25.13
2023-05-05T10:40:56.458Z,25.69
2023-05-05T10:43:23.385Z,26.18
2023-05-05T10:45:50.264Z,26.15
2023-05-05T10:48:22.791Z,25.88
2023-05-05T10:50:51.544Z,25.97
2023-05-05T10:53:22.279Z,24.75
2023-05-05T10:55:54.215Z,24.65
2023-05-05T10:58:38.510Z,24.02
2023-05-05T11:01:10.818Z,24.37
2023-05-05T11:03:37.611Z,25.18
2023-05-05T11:06:12.650Z,25.51
2023-05-05T11:08:42.081Z,25.17
2023-05-05T11:11:10.534Z,25.44
2023-05-05T11:13:37.969Z,25.61
2023-05-05T11:16:05.443Z,25.71
2023-05-05T11:18:36.486Z,25.62
2023-05-05T11:21:15.721Z,25.60
2023-05-05T11:23:44.598Z,25.42
2023-05-05T11:26:11.731Z,25.60
2023-05-05T11:28:53.253Z,25.75
2023-05-05T11:31:20.102Z,24.53
2023-05-05T11:33:46.965Z,25.23
2023-05-05T11:36:14.545Z,25.29
2023-05-05T11:38:52.893Z,25.40
2023-05-05T11:41:28.035Z,25.62
2023-05-05T11:44:08.208Z,25.33
2023-05-05T11:46:34.935Z,25.35
2023-05-05T11:49:01.570Z,24.97
2023-05-05T11:51:28.607Z,25.49
2023-05-05T11:53:58.383Z,25.60
2023-05-05T11:56:25.950Z,25.43
2023-05-05T11:59:06.038Z,25.36
2023-05-05T12:01:32.948Z,25.05
2023-05-05T12:03:59.807Z,24.03
2023-05-05T12:06:27.573Z,24.56
2023-05-05T12:08:54.230Z,23.86
2023-05-05T12:11:22.225Z,23.46
2023-05-05T12:13:48.875Z,23.06
2023-05-05T12:16:15.958Z,23.47
2023-05-05T12:18:42.740Z,23.28
2023-05-05T12:21:16.027Z,23.12
2023-05-05T12:23:42.840Z,22.71
2023-05-05T12:26:24.871Z,22.40
2023-05-05T12:28:51.652Z,21.60
2023-05-05T12:31:18.286Z,21.13
2023-05-05T12:33:45.345Z,20.57
2023-05-05T12:36:12.298Z,20.18
2023-05-05T12:38:39.496Z,20.21
2023-05-05T12:41:06.172Z,20.03
2023-05-05T12:43:35.133Z,19.85
2023-05-05T12:46:02.613Z,19.75
2023-05-05T12:48:29.289Z,19.38
2023-05-05T12:51:09.490Z,18.73
2023-05-05T12:53:36.061Z,18.63
2023-05-05T12:56:03.130Z,18.02
2023-05-05T12:58:32.663Z,18.12
2023-05-05T13:01:10.226Z,17.92
2023-05-05T13:03:36.943Z,17.98
2023-05-05T13:06:18.380Z,17.83
2023-05-05T13:08:45.109Z,17.84
2023-05-05T13:11:12.234Z,17.77
2023-05-05T13:13:38.886Z,17.74
2023-05-05T13:16:05.966Z,17.68
2023-05-05T13:18:42.909Z,17.69
2023-05-05T13:21:09.540Z,17.79
2023-05-05T13:23:36.187Z,17.89
2023-05-05T13:26:03.445Z,17.79
2023-05-05T13:28:30.134Z,17.82
2023-05-05T13:30:58.675Z,18.02
2023-05-05T13:33:25.392Z,18.19
2023-05-05T13:35:53.352Z,18.31
2023-05-05T13:38:20.068Z,18.33
2023-05-05T13:40:46.758Z,18.23
2023-05-05T13:43:13.563Z,18.26
2023-05-05T13:45:41.762Z,18.29
2023-05-05T13:48:08.787Z,18.33
2023-05-05T13:50:35.486Z,18.43
2023-05-05T13:53:03.521Z,18.43
2023-05-05T13:55:30.220Z,18.52
2023-05-05T13:57:58.720Z,18.49
2023-05-05T14:00:25.409Z,18.49
2023-05-05T14:02:52.241Z,18.42
2023-05-05T14:05:19.118Z,18.34
2023-05-05T14:07:45.760Z,18.25
2023-05-05T14:10:13.848Z,18.20
2023-05-05T14:12:40.505Z,18.10
2023-05-05T14:15:07.922Z,17.97
2023-05-05T14:17:34.859Z,17.98
2023-05-05T14:20:01.496Z,17.94
2023-05-05T14:22:28.292Z,17.96
2023-05-05T14:24:55.043Z,17.96
2023-05-05T14:27:23.313Z,17.97
2023-05-05T14:29:49.967Z,18.01
2023-05-05T14:32:16.838Z,17.99
2023-05-05T14:34:43.506Z,17.95
2023-05-05T14:37:10.188Z,17.87
2023-05-05T14:39:37.299Z,17.92
2023-05-05T14:42:04.323Z,17.85
2023-05-05T14:44:32.707Z,17.80
2023-05-05T14:46:59.632Z,17.86
2023-05-05T14:49:26.255Z,17.96
2023-05-05T14:51:54.409Z,18.12
2023-05-05T14:54:27.784Z,18.27
2023-05-05T14:56:55.634Z,18.48
2023-05-05T14:59:22.323Z,18.63
2023-05-05T15:01:50.441Z,18.69
2023-05-05T15:04:17.180Z,18.70
2023-05-05T15:06:43.831Z,18.98
2023-05-05T15:09:10.424Z,19.20
2023-05-05T15:11:37.081Z,19.31
2023-05-05T15:14:03.671Z,19.42
2023-05-05T15:16:30.408Z,19.36
2023-05-05T15:18:58.841Z,19.25
2023-05-05T15:21:25.601Z,19.20
2023-05-05T15:23:52.284Z,19.11
2023-05-05T15:26:19.160Z,19.10
2023-05-05T15:28:46.555Z,19.18
2023-05-05T15:31:14.419Z,19.24
2023-05-05T15:33:41.301Z,19.09
2023-05-05T15:36:10.126Z,18.94
2023-05-05T15:38:40.483Z,18.89
2023-05-05T15:41:07.127Z,18.74
2023-05-05T15:43:34.038Z,17.93
2023-05-05T15:46:00.750Z,18.01
2023-05-05T15:48:27.489Z,18.23
2023-05-05T15:50:54.084Z,18.15
2023-05-05T15:53:22.141Z,18.33
2023-05-05T15:55:48.770Z,17.96
2023-05-05T15:58:15.543Z,18.03
2023-05-05T16:00:42.142Z,17.91
2023-05-05T16:03:08.876Z,18.28
2023-05-05T16:05:35.569Z,17.82
2023-05-05T16:08:02.149Z,17.98
2023-05-05T16:10:30.496Z,17.80
2023-05-05T16:12:57.531Z,17.85
2023-05-05T16:15:24.329Z,17.66
2023-05-05T16:17:51.008Z,17.97
2023-05-05T16:20:17.680Z,18.11
2023-05-05T16:22:44.414Z,17.80
2023-05-05T16:25:11.321Z,18.17
2023-05-05T16:27:39.387Z,18.29
2023-05-05T16:30:07.189Z,18.22
2023-05-05T16:32:33.827Z,17.78
2023-05-05T16:35:01.886Z,17.16
2023-05-05T16:37:28.588Z,17.31
2023-05-05T16:39:55.423Z,17.67
2023-05-05T16:42:22.657Z,17.80
2023-05-05T16:44:50.703Z,17.68
2023-05-05T16:47:17.367Z,17.67
2023-05-05T16:49:43.983Z,17.42
2023-05-05T16:52:10.591Z,17.56
2023-05-05T16:54:37.228Z,17.78
2023-05-05T16:57:03.923Z,17.53
2023-05-05T16:59:31.653Z,17.53
2023-05-05T17:01:59.898Z,17.23
2023-05-05T17:04:26.576Z,17.51
2023-05-05T17:06:54.974Z,17.38
2023-05-05T17:09:24.958Z,17.48
2023-05-05T17:11:51.869Z,17.78
2023-05-05T17:14:18.588Z,17.89
2023-05-05T17:16:45.263Z,17.66
2023-05-05T17:19:13.399Z,17.79
2023-05-05T17:21:40.029Z,17.28
2023-05-05T17:24:07.171Z,17.30
2023-05-05T17:26:33.790Z,17.41
2023-05-05T17:29:00.432Z,17.42
2023-05-05T17:31:27.064Z,16.98
2023-05-05T17:33:53.716Z,16.98
2023-05-05T17:36:21.681Z,16.98
2023-05-05T17:38:48.345Z,16.84
2023-05-05T17:41:14.939Z,16.71
2023-05-05T17:43:41.519Z,16.85
2023-05-05T17:46:08.198Z,17.13
2023-05-05T17:48:34.821Z,17.26
2023-05-05T17:51:01.426Z,17.25
2023-05-05T17:53:29.413Z,16.87
2023-05-05T17:55:56.008Z,16.88
2023-05-05T17:58:22.763Z,16.67
2023-05-05T18:00:49.459Z,16.63
2023-05-05T18:03:16.473Z,16.87
2023-05-05T18:05:43.156Z,16.59
2023-05-05T18:08:09.807Z,16.72
2023-05-05T18:10:37.822Z,16.75
2023-05-05T18:13:04.474Z,16.69
2023-05-05T18:15:31.222Z,16.73
2023-05-05T18:17:57.956Z,16.87
2023-05-05T18:20:24.762Z,16.65
2023-05-05T18:22:52.263Z,16.79
2023-05-05T18:25:19.242Z,16.74
2023-05-05T18:27:47.263Z,16.42
2023-05-05T18:30:13.990Z,16.70
2023-05-05T18:32:40.869Z,16.76
2023-05-05T18:35:08.257Z,17.04
2023-05-05T18:37:35.132Z,17.05
2023-05-05T18:40:01.736Z,16.87
2023-05-05T18:42:28.488Z,16.48
2023-05-05T18:44:56.506Z,16.66
2023-05-05T18:47:23.657Z,16.54
2023-05-05T18:49:50.536Z,16.62
2023-05-05T18:52:17.292Z,16.69
2023-05-05T18:54:43.905Z,16.51
2023-05-05T18:57:10.703Z,16.40
2023-05-05T18:59:37.460Z,16.23
2023-05-05T19:02:06.547Z,16.13
2023-05-05T19:04:36.457Z,16.15
2023-05-05T19:07:03.206Z,16.10
2023-05-05T19:09:29.824Z,16.11
2023-05-05T19:11:56.504Z,16.09
2023-05-05T19:14:23.242Z,16.19
2023-05-05T19:16:50.054Z,16.19
2023-05-05T19:19:18.277Z,15.78
2023-05-05T19:21:44.963Z,15.58
2023-05-05T19:24:11.719Z,15.67
2023-05-05T19:26:38.372Z,15.64
2023-05-05T19:29:04.956Z,15.42
2023-05-05T19:31:31.802Z,15.39
2023-05-05T19:34:00.104Z,15.20
2023-05-05T19:36:28.303Z,15.21
2023-05-05T19:38:55.308Z,15.30
2023-05-05T19:41:21.940Z,15.40
2023-05-05T19:43:49.905Z,15.43
2023-05-05T19:46:17.273Z,15.59
2023-05-05T19:48:44.388Z,15.61
2023-05-05T19:51:11.023Z,15.59
2023-05-05T19:53:40.197Z,15.61
2023-05-05T19:56:06.866Z,15.64
2023-05-05T19:58:34.387Z,15.70
2023-05-05T20:01:01.096Z,15.67
2023-05-05T20:03:27.838Z,15.55
2023-05-05T20:05:54.474Z,15.55
2023-05-05T20:08:21.114Z,15.63
2023-05-05T20:10:50.684Z,15.63
2023-05-05T20:13:17.352Z,15.60
2023-05-05T20:15:44.100Z,15.51
2023-05-05T20:18:10.856Z,15.40
2023-05-05T20:20:37.514Z,15.31
2023-05-05T20:23:04.103Z,15.23
2023-05-05T20:25:30.825Z,15.12
2023-05-05T20:27:58.849Z,15.03
2023-05-05T20:30:25.580Z,14.98
2023-05-05T20:32:53.662Z,14.89
2023-05-05T20:35:21.306Z,14.72
2023-05-05T20:37:48.695Z,14.62
2023-05-05T20:40:15.884Z,14.39
2023-05-05T20:42:42.524Z,14.35
2023-05-05T20:45:11.328Z,14.25
2023-05-05T20:47:38.220Z,14.29
2023-05-05T20:50:05.757Z,14.34
2023-05-05T20:52:33.651Z,14.41
2023-05-05T20:55:00.234Z,14.40
2023-05-05T20:57:26.857Z,14.37
2023-05-05T20:59:53.439Z,14.25
2023-05-05T21:02:21.500Z,14.04
2023-05-05T21:04:48.209Z,13.56
2023-05-05T21:07:14.845Z,13.51
2023-05-05T21:09:41.532Z,13.64
2023-05-05T21:12:08.143Z,13.79
2023-05-05T21:14:34.992Z,13.85
2023-05-05T21:17:01.666Z,13.87
2023-05-05T21:19:29.732Z,13.86
2023-05-05T21:21:59.303Z,13.83
2023-05-05T21:24:26.088Z,13.59
2023-05-05T21:26:52.807Z,13.41
2023-05-05T21:29:19.630Z,13.47
2023-05-05T21:31:46.613Z,13.69
2023-05-05T21:34:13.317Z,13.71
2023-05-05T21:36:41.266Z,13.59
2023-05-05T21:39:07.836Z,13.64
2023-05-05T21:41:34.456Z,13.67
2023-05-05T21:44:01.153Z,13.80
2023-05-05T21:46:27.916Z,13.69
2023-05-05T21:48:54.640Z,13.61
2023-05-05T21:51:23.237Z,13.65
2023-05-05T21:53:51.408Z,13.70
2023-05-05T21:56:18.029Z,13.62
2023-05-05T21:58:44.770Z,13.67
2023-05-05T22:01:11.967Z,13.59
2023-05-05T22:03:38.853Z,13.65
2023-05-05T22:06:05.730Z,13.67
2023-05-05T22:08:32.388Z,13.42
2023-05-05T22:11:00.488Z,13.23
2023-05-05T22:13:27.173Z,13.17
2023-05-05T22:15:53.768Z,13.16
2023-05-05T22:18:20.400Z,13.22
2023-05-05T22:20:47.185Z,13.18
2023-05-05T22:23:14.245Z,13.10
2023-05-05T22:25:40.846Z,13.05
2023-05-05T22:28:08.837Z,13.04
2023-05-05T22:30:35.624Z,13.06
2023-05-05T22:33:02.309Z,13.10
2023-05-05T22:35:29.030Z,13.10
2023-05-05T22:37:55.757Z,13.14
2023-05-05T22:40:22.301Z,13.17
2023-05-05T22:42:48.941Z,13.06
2023-05-05T22:45:17.029Z,12.95
2023-05-05T22:47:44.478Z,12.63
2023-05-05T22:50:11.324Z,12.65
2023-05-05T22:52:38.014Z,12.76
2023-05-05T22:55:04.985Z,12.87
2023-05-05T22:57:31.748Z,12.94
2023-05-05T22:59:58.395Z,12.85
2023-05-05T23:02:26.770Z,12.66
2023-05-05T23:04:53.536Z,12.50
2023-05-05T23:07:20.312Z,12.18
2023-05-05T23:09:46.977Z,12.05
2023-05-05T23:12:13.584Z,12.13
2023-05-05T23:14:40.480Z,12.28
2023-05-05T23:17:07.233Z,12.23
2023-05-05T23:19:35.268Z,12.33
2023-05-05T23:22:02.246Z,12.46
2023-05-05T23:24:29.233Z,12.51
2023-05-05T23:26:58.296Z,12.46
2023-05-05T23:29:25.039Z,12.35
2023-05-05T23:31:51.754Z,12.12
2023-05-05T23:34:18.370Z,11.82
2023-05-05T23:36:46.766Z,11.41
2023-05-05T23:39:13.364Z,11.52
2023-05-05T23:41:40.147Z,11.74
2023-05-05T23:44:06.741Z,11.80
2023-05-05T23:46:33.440Z,11.79
2023-05-05T23:49:00.030Z,11.43
2023-05-05T23:51:27.304Z,11.38
2023-05-05T23:53:56.076Z,11.42
2023-05-05T23:56:22.829Z,11.58
2023-05-05T23:58:49.489Z,11.73
